Time;durP1;ratioP1;P1;durP2;ratioP2;P2;SDS_P1;SDS_P2;PMS_P1;PMS_P2;Temp;Humidity;BMP_temperature;BMP_pressure;BME280_temperature;BME280_humidity;BME280_pressure;Samples;Min_cycle;Max_cycle;Signal;HPM_P1;HPM_P2
2021/12/01 00:00:52;;;;;;;5.30;4.90;;;9.30;99.90;;;;;;5033686;28;20238;-68
2021/12/01 00:03:18;;;;;;;4.40;4.00;;;9.40;99.90;;;;;;5033550;28;20184;-68
2021/12/01 00:05:44;;;;;;;4.33;3.97;;;9.30;99.90;;;;;;5033852;28;20441;-67
2021/12/01 00:08:10;;;;;;;3.90;3.60;;;9.30;99.90;;;;;;5033866;28;20403;-68
2021/12/01 00:10:37;;;;;;;4.23;3.93;;;9.30;99.90;;;;;;5015369;28;20666;-67
2021/12/01 00:13:05;;;;;;;4.93;4.53;;;9.30;99.90;;;;;;5034026;28;20409;-69
2021/12/01 00:15:31;;;;;;;4.27;3.87;;;9.30;99.90;;;;;;5034385;28;20429;-69
2021/12/01 00:17:56;;;;;;;3.80;3.50;;;9.30;99.90;;;;;;5017732;28;20417;-69
2021/12/01 00:20:22;;;;;;;5.60;3.80;;;9.30;99.90;;;;;;5017745;28;20191;-69
2021/12/01 00:22:49;;;;;;;4.10;3.80;;;9.30;99.90;;;;;;5037682;28;20205;-69
2021/12/01 00:25:18;;;;;;;4.10;3.80;;;9.30;99.90;;;;;;5033110;28;20422;-69
2021/12/01 00:27:44;;;;;;;4.10;3.63;;;9.30;99.90;;;;;;5033693;28;20460;-68
2021/12/01 00:30:10;;;;;;;3.47;3.27;;;9.30;99.90;;;;;;5035711;28;20424;-69
2021/12/01 00:32:36;;;;;;;3.40;3.10;;;9.30;99.90;;;;;;5040568;28;20474;-68
2021/12/01 00:35:05;;;;;;;3.40;3.10;;;9.30;99.90;;;;;;5036416;28;20662;-68
2021/12/01 00:37:31;;;;;;;3.03;2.83;;;9.30;99.90;;;;;;5035977;28;20414;-69
2021/12/01 00:39:56;;;;;;;3.33;3.10;;;9.30;99.90;;;;;;5040053;28;20440;-69
2021/12/01 00:42:22;;;;;;;3.70;3.40;;;9.20;99.90;;;;;;5038852;28;20194;-68
2021/12/01 00:44:55;;;;;;;3.67;3.37;;;9.30;99.90;;;;;;5038908;28;20184;-69
2021/12/01 00:47:41;;;;;;;3.90;3.50;;;9.30;99.90;;;;;;5036676;28;20390;-69
2021/12/01 00:50:07;;;;;;;3.30;3.03;;;9.30;99.90;;;;;;5018635;28;20442;-68
2021/12/01 00:52:32;;;;;;;3.67;3.37;;;9.30;99.90;;;;;;5035779;28;20630;-68
2021/12/01 00:54:58;;;;;;;3.60;3.30;;;9.30;99.90;;;;;;5036188;28;20182;-68
2021/12/01 00:57:24;;;;;;;2.83;2.63;;;9.30;99.90;;;;;;5037021;28;20244;-69
2021/12/01 00:59:49;;;;;;;3.77;2.73;;;9.30;99.90;;;;;;5035634;28;20741;-68
2021/12/01 01:02:15;;;;;;;2.70;2.50;;;9.30;99.90;;;;;;5035627;28;20189;-68
2021/12/01 01:04:40;;;;;;;2.80;2.60;;;9.20;99.90;;;;;;5035980;28;20166;-67
2021/12/01 01:07:06;;;;;;;3.93;2.10;;;9.20;99.90;;;;;;5035450;28;20163;-69
2021/12/01 01:09:32;;;;;;;2.50;2.30;;;9.20;99.90;;;;;;5035612;28;20209;-68
2021/12/01 01:17:36;;;;;;;2.17;2.07;;;9.30;99.90;;;;;;5035234;28;20404;-68
2021/12/01 01:20:03;;;;;;;2.20;2.00;;;9.30;99.90;;;;;;5035505;28;20511;-68
2021/12/01 01:22:29;;;;;;;2.60;2.40;;;9.30;99.90;;;;;;5017423;28;20490;-68
2021/12/01 01:24:55;;;;;;;2.17;2.00;;;9.20;99.90;;;;;;5035566;28;20432;-69
2021/12/01 01:27:20;;;;;;;2.63;2.40;;;9.20;99.90;;;;;;5035649;28;20176;-68
2021/12/01 01:29:46;;;;;;;2.60;2.40;;;9.20;99.90;;;;;;5018078;28;20289;-68
2021/12/01 01:32:11;;;;;;;2.63;2.43;;;9.20;99.90;;;;;;5030684;28;20219;-68
2021/12/01 01:34:37;;;;;;;2.63;2.43;;;9.20;99.90;;;;;;5034818;28;20216;-69
2021/12/01 01:37:03;;;;;;;2.70;2.50;;;9.30;99.90;;;;;;5034591;28;20275;-68
2021/12/01 01:39:28;;;;;;;3.03;2.83;;;9.30;99.90;;;;;;5034693;28;20173;-69
2021/12/01 01:41:54;;;;;;;3.30;3.10;;;9.30;99.90;;;;;;5035632;28;20204;-68
2021/12/01 01:44:20;;;;;;;3.13;2.93;;;9.30;99.90;;;;;;5017451;28;20638;-68
2021/12/01 01:46:46;;;;;;;4.10;3.70;;;9.30;99.90;;;;;;5016816;28;20210;-68
2021/12/01 01:49:18;;;;;;;3.83;3.63;;;9.40;99.90;;;;;;5017259;28;20475;-68
2021/12/01 01:51:45;;;;;;;3.60;2.70;;;9.30;99.90;;;;;;5035175;28;20582;-69
2021/12/01 01:54:11;;;;;;;3.27;2.97;;;9.30;99.90;;;;;;5017558;28;20463;-69
2021/12/01 01:56:39;;;;;;;3.17;2.93;;;9.30;99.90;;;;;;5034665;28;20435;-68
2021/12/01 01:59:04;;;;;;;2.67;2.47;;;9.40;99.90;;;;;;5035117;28;20420;-68
2021/12/01 02:03:57;;;;;;;2.77;2.63;;;9.30;99.90;;;;;;5034999;28;20899;-68
2021/12/01 02:06:23;;;;;;;3.10;2.83;;;9.20;99.90;;;;;;5034277;28;20423;-68
2021/12/01 02:08:50;;;;;;;3.07;2.87;;;9.30;99.90;;;;;;5034756;28;20178;-68
2021/12/01 02:11:18;;;;;;;2.93;2.73;;;9.30;99.90;;;;;;5034808;28;20515;-69
2021/12/01 02:13:44;;;;;;;3.53;2.70;;;9.30;99.90;;;;;;5034411;28;20420;-68
2021/12/01 02:16:11;;;;;;;2.30;2.20;;;9.40;99.90;;;;;;5034230;28;20514;-69
2021/12/01 02:18:38;;;;;;;2.60;2.40;;;9.30;99.90;;;;;;5035010;28;20424;-69
2021/12/01 02:21:11;;;;;;;2.50;2.40;;;9.30;99.90;;;;;;5034049;28;20458;-68
2021/12/01 02:23:38;;;;;;;2.70;2.50;;;9.30;99.90;;;;;;5034571;28;20463;-69
2021/12/01 02:26:05;;;;;;;3.03;2.73;;;9.30;99.90;;;;;;5034231;28;20885;-69
2021/12/01 02:28:32;;;;;;;3.50;2.90;;;9.30;99.90;;;;;;5034010;28;20794;-69
2021/12/01 02:30:58;;;;;;;3.00;2.80;;;9.30;99.90;;;;;;5034141;28;20429;-68
2021/12/01 02:33:24;;;;;;;5.90;3.00;;;9.30;99.90;;;;;;5017377;28;20421;-68
2021/12/01 02:35:50;;;;;;;2.63;2.50;;;9.30;99.90;;;;;;5034400;28;20419;-69
2021/12/01 02:38:17;;;;;;;3.93;3.63;;;9.30;99.90;;;;;;5027496;28;20670;-69
2021/12/01 02:40:43;;;;;;;3.00;2.80;;;9.20;99.90;;;;;;5037453;28;20230;-69
2021/12/01 02:43:09;;;;;;;3.60;3.20;;;9.30;99.90;;;;;;5035076;28;20413;-69
2021/12/01 02:45:34;;;;;;;3.43;3.23;;;9.20;99.90;;;;;;5034630;28;20957;-69
2021/12/01 02:48:00;;;;;;;3.37;2.80;;;9.30;99.90;;;;;;5016361;28;20186;-67
2021/12/01 02:50:26;;;;;;;2.83;2.63;;;9.20;99.90;;;;;;5034052;28;20423;-67
2021/12/01 02:52:52;;;;;;;4.13;3.13;;;9.20;99.90;;;;;;5034073;28;20178;-68
2021/12/01 02:55:19;;;;;;;3.20;3.00;;;9.20;99.90;;;;;;5034192;28;20416;-69
2021/12/01 02:57:49;;;;;;;3.53;3.23;;;9.20;99.90;;;;;;5034104;28;20177;-68
2021/12/01 03:00:17;;;;;;;3.17;2.97;;;9.20;99.90;;;;;;5032723;28;20497;-68
2021/12/01 03:02:44;;;;;;;3.13;2.93;;;9.10;99.90;;;;;;5033469;28;20513;-68
2021/12/01 03:05:10;;;;;;;4.20;3.80;;;9.10;99.90;;;;;;5033903;28;20412;-69
2021/12/01 03:07:36;;;;;;;2.90;2.70;;;9.10;99.90;;;;;;5034570;28;20470;-68
2021/12/01 03:10:07;;;;;;;3.60;3.30;;;9.20;99.90;;;;;;5033739;28;20202;-68
2021/12/01 03:12:35;;;;;;;3.67;3.37;;;9.20;99.90;;;;;;5034704;28;20782;-68
2021/12/01 03:15:01;;;;;;;3.70;3.43;;;9.10;99.90;;;;;;5033815;28;20509;-69
2021/12/01 03:17:28;;;;;;;4.20;3.80;;;9.20;99.90;;;;;;5033012;28;20499;-69
2021/12/01 03:19:54;;;;;;;3.93;3.53;;;9.10;99.90;;;;;;5033240;28;20433;-69
2021/12/01 03:22:20;;;;;;;4.13;3.83;;;9.10;99.90;;;;;;5033380;28;20464;-68
2021/12/01 03:24:46;;;;;;;3.93;3.63;;;9.10;99.90;;;;;;5033277;28;20507;-69
2021/12/01 03:27:11;;;;;;;4.03;3.73;;;9.10;99.90;;;;;;5033010;28;20883;-68
2021/12/01 03:29:37;;;;;;;4.40;4.00;;;9.10;99.90;;;;;;5033037;28;20435;-69
2021/12/01 03:32:03;;;;;;;3.10;2.90;;;9.10;99.90;;;;;;5029629;28;20632;-69
2021/12/01 03:34:29;;;;;;;4.10;3.80;;;9.10;99.90;;;;;;5027697;28;20189;-68
2021/12/01 03:36:55;;;;;;;4.07;3.73;;;9.10;99.90;;;;;;5032715;28;20421;-69
2021/12/01 03:39:21;;;;;;;4.10;3.80;;;9.10;99.90;;;;;;5032587;28;20212;-68
2021/12/01 03:41:46;;;;;;;4.67;3.20;;;9.20;99.90;;;;;;5032802;28;20540;-68
2021/12/01 03:44:12;;;;;;;4.67;4.27;;;9.10;99.90;;;;;;5014765;28;20618;-68
2021/12/01 03:46:38;;;;;;;3.40;3.10;;;9.00;99.90;;;;;;5033108;28;20199;-68
2021/12/01 03:49:03;;;;;;;3.80;3.50;;;9.00;99.90;;;;;;5033860;28;20576;-68
2021/12/01 03:51:29;;;;;;;4.70;4.30;;;9.00;99.90;;;;;;5033740;28;20682;-68
2021/12/01 03:53:55;;;;;;;4.80;4.30;;;9.00;99.90;;;;;;5015950;28;20185;-68
2021/12/01 03:56:21;;;;;;;4.57;4.10;;;9.00;99.90;;;;;;5032695;28;20473;-69
2021/12/01 03:58:47;;;;;;;4.57;4.17;;;9.10;99.90;;;;;;5033057;28;20589;-70
2021/12/01 04:01:13;;;;;;;5.77;4.90;;;9.00;99.90;;;;;;5033256;28;20457;-69
2021/12/01 04:03:39;;;;;;;5.40;4.73;;;9.00;99.90;;;;;;5015772;28;20427;-68
2021/12/01 04:06:05;;;;;;;6.17;5.40;;;9.00;99.90;;;;;;5032227;28;20497;-70
2021/12/01 04:08:31;;;;;;;5.67;5.17;;;9.00;99.90;;;;;;5033178;28;20611;-70
2021/12/01 04:10:57;;;;;;;5.63;5.13;;;8.90;99.90;;;;;;5031869;28;20335;-68
2021/12/01 04:13:23;;;;;;;5.90;4.43;;;9.00;99.90;;;;;;5032885;28;20444;-68
2021/12/01 04:15:48;;;;;;;5.00;4.60;;;8.90;99.90;;;;;;5014326;28;20171;-69
2021/12/01 04:18:14;;;;;;;5.20;4.63;;;8.80;99.90;;;;;;5032496;28;20598;-69
2021/12/01 04:20:40;;;;;;;7.10;4.40;;;8.90;99.90;;;;;;5014762;28;20202;-69
2021/12/01 04:23:05;;;;;;;5.60;4.37;;;8.90;99.90;;;;;;5032692;28;20182;-69
2021/12/01 04:25:32;;;;;;;4.43;3.90;;;8.90;99.90;;;;;;5014548;28;20174;-69
2021/12/01 04:27:58;;;;;;;3.87;3.43;;;9.00;99.90;;;;;;5013835;28;20176;-69
2021/12/01 04:30:25;;;;;;;3.30;3.00;;;9.00;99.90;;;;;;5014555;28;20508;-69
2021/12/01 04:32:52;;;;;;;3.40;3.20;;;8.90;99.90;;;;;;5014459;28;20418;-69
2021/12/01 04:35:20;;;;;;;3.77;3.47;;;9.00;99.90;;;;;;5031837;28;20476;-69
2021/12/01 04:37:47;;;;;;;2.90;2.60;;;9.00;99.90;;;;;;5031648;28;20509;-67
2021/12/01 04:40:13;;;;;;;3.50;3.20;;;9.00;99.90;;;;;;5031756;28;20425;-68
2021/12/01 04:42:39;;;;;;;3.80;3.47;;;9.00;99.90;;;;;;5031850;28;20483;-69
2021/12/01 04:45:14;;;;;;;3.93;3.63;;;9.00;99.90;;;;;;5031811;28;20458;-67
2021/12/01 04:47:42;;;;;;;4.60;3.60;;;9.00;99.90;;;;;;5010261;28;20842;-68
2021/12/01 04:50:09;;;;;;;3.77;3.47;;;9.00;99.90;;;;;;5014435;28;20454;-68
2021/12/01 04:52:34;;;;;;;3.83;3.53;;;8.90;99.90;;;;;;5031320;28;20429;-68
2021/12/01 04:55:00;;;;;;;4.13;3.40;;;8.90;99.90;;;;;;5032135;28;20415;-67
2021/12/01 04:57:25;;;;;;;4.60;4.13;;;8.90;99.90;;;;;;5032063;28;20203;-68
2021/12/01 04:59:51;;;;;;;7.07;3.97;;;8.80;99.90;;;;;;5031812;28;20702;-68
2021/12/01 05:02:16;;;;;;;5.07;3.80;;;8.80;99.90;;;;;;5031797;28;20693;-69
2021/12/01 05:04:42;;;;;;;4.07;3.43;;;8.80;99.90;;;;;;5014900;28;20186;-69
2021/12/01 05:07:09;;;;;;;3.93;3.63;;;8.80;99.90;;;;;;5031481;28;20198;-68
2021/12/01 05:09:36;;;;;;;4.00;3.70;;;8.90;99.90;;;;;;5032895;28;20174;-69
2021/12/01 05:12:02;;;;;;;4.30;3.90;;;8.80;99.90;;;;;;5058912;22;20565;-69
2021/12/01 05:14:28;;;;;;;3.80;3.50;;;8.80;99.90;;;;;;5049067;28;20447;-70
2021/12/01 05:16:54;;;;;;;4.50;4.10;;;8.80;99.90;;;;;;5032566;28;20490;-71
2021/12/01 05:19:20;;;;;;;5.20;4.70;;;8.80;99.90;;;;;;5050720;28;20392;-71
2021/12/01 05:21:46;;;;;;;5.67;4.60;;;8.90;99.90;;;;;;5050870;28;20466;-71
2021/12/01 05:24:12;;;;;;;4.70;4.07;;;8.80;99.90;;;;;;5053455;28;20249;-71
2021/12/01 05:26:38;;;;;;;5.20;4.30;;;8.90;99.90;;;;;;5054133;28;20175;-70
2021/12/01 05:29:05;;;;;;;6.47;4.70;;;8.90;99.90;;;;;;5054357;28;20409;-70
2021/12/01 05:31:30;;;;;;;4.70;4.30;;;8.90;99.90;;;;;;5049663;28;20439;-70
2021/12/01 05:33:56;;;;;;;5.27;4.80;;;8.80;99.90;;;;;;5053920;28;21200;-71
2021/12/01 05:36:22;;;;;;;5.87;4.77;;;8.80;99.90;;;;;;5054119;28;20247;-70
2021/12/01 05:38:47;;;;;;;4.67;4.27;;;8.80;99.90;;;;;;5054214;28;20174;-69
2021/12/01 05:41:13;;;;;;;6.53;4.33;;;8.80;99.90;;;;;;5049682;28;20230;-70
2021/12/01 05:43:39;;;;;;;7.13;4.90;;;8.80;99.90;;;;;;5054082;28;20537;-70
2021/12/01 05:46:05;;;;;;;4.93;4.43;;;8.80;99.90;;;;;;5053126;28;20429;-70
2021/12/01 05:48:30;;;;;;;4.77;4.37;;;8.80;99.90;;;;;;5053936;28;20628;-70
2021/12/01 05:50:56;;;;;;;4.93;4.43;;;8.80;99.90;;;;;;5050913;28;20285;-71
2021/12/01 05:53:21;;;;;;;4.53;4.13;;;8.80;99.90;;;;;;5052820;28;20186;-71
2021/12/01 05:55:47;;;;;;;6.60;4.70;;;8.90;99.90;;;;;;5053550;28;20177;-71
2021/12/01 05:58:13;;;;;;;4.63;4.07;;;8.80;99.90;;;;;;5046746;28;20257;-71
2021/12/01 06:00:38;;;;;;;5.37;4.07;;;8.90;99.90;;;;;;5033402;28;20178;-70
2021/12/01 06:03:04;;;;;;;4.60;4.20;;;8.90;99.90;;;;;;5047396;28;20200;-71
2021/12/01 06:05:29;;;;;;;4.50;4.10;;;8.90;99.90;;;;;;5047110;28;20202;-71
2021/12/01 06:07:55;;;;;;;4.03;3.73;;;8.90;99.90;;;;;;5050639;28;20190;-71
2021/12/01 06:10:21;;;;;;;4.43;4.13;;;8.80;99.90;;;;;;5053554;28;20185;-71
2021/12/01 06:12:46;;;;;;;4.63;4.00;;;8.80;99.90;;;;;;5049441;28;20571;-70
2021/12/01 06:15:15;;;;;;;4.93;4.17;;;8.90;99.90;;;;;;5048129;28;20170;-71
2021/12/01 06:17:41;;;;;;;4.20;3.90;;;8.90;99.90;;;;;;5050288;28;20178;-71
2021/12/01 06:20:08;;;;;;;4.43;4.03;;;8.90;99.90;;;;;;5051228;28;20423;-70
2021/12/01 06:22:34;;;;;;;3.60;3.30;;;8.80;99.90;;;;;;5050989;28;20201;-71
2021/12/01 06:25:00;;;;;;;3.63;3.33;;;8.70;99.90;;;;;;5049541;28;20415;-71
2021/12/01 06:27:26;;;;;;;4.07;3.30;;;8.80;99.90;;;;;;5052603;28;20459;-70
2021/12/01 06:29:52;;;;;;;3.50;3.20;;;8.70;99.90;;;;;;5042562;28;20191;-68
2021/12/01 06:32:18;;;;;;;3.70;3.40;;;8.80;99.90;;;;;;5047436;28;20871;-70
2021/12/01 06:34:44;;;;;;;3.40;2.97;;;8.80;99.90;;;;;;5043360;28;20415;-71
2021/12/01 06:37:09;;;;;;;3.53;3.23;;;8.80;99.90;;;;;;5046568;28;20428;-72
2021/12/01 06:39:35;;;;;;;3.47;3.13;;;8.70;99.90;;;;;;5039814;28;20274;-70
2021/12/01 06:42:01;;;;;;;4.23;3.43;;;8.70;99.90;;;;;;5054024;28;20627;-70
2021/12/01 06:44:30;;;;;;;3.37;3.07;;;8.70;99.90;;;;;;5050445;28;21437;-69
2021/12/01 06:46:56;;;;;;;4.37;3.40;;;8.70;99.90;;;;;;5051329;28;20208;-70
2021/12/01 06:49:21;;;;;;;3.60;3.30;;;8.70;99.90;;;;;;5048908;28;20464;-70
2021/12/01 06:51:47;;;;;;;4.80;3.30;;;8.70;99.90;;;;;;5050883;28;20293;-70
2021/12/01 06:54:13;;;;;;;3.20;3.00;;;8.70;99.90;;;;;;5050180;28;20210;-73
2021/12/01 06:56:39;;;;;;;2.63;2.43;;;8.70;99.90;;;;;;5043962;28;20460;-70
2021/12/01 06:59:04;;;;;;;3.30;3.00;;;8.80;99.90;;;;;;5049893;28;20224;-70
2021/12/01 07:01:30;;;;;;;3.50;3.20;;;8.80;99.90;;;;;;5046990;28;20262;-71
2021/12/01 07:03:55;;;;;;;3.60;3.30;;;8.80;99.90;;;;;;5048387;28;20693;-71
2021/12/01 07:06:21;;;;;;;3.20;2.90;;;8.80;99.90;;;;;;5049507;28;20193;-70
2021/12/01 07:08:47;;;;;;;3.37;3.10;;;8.80;99.90;;;;;;5049517;28;20257;-69
2021/12/01 07:11:13;;;;;;;4.13;3.20;;;8.70;99.90;;;;;;5047167;28;20675;-70
2021/12/01 07:13:39;;;;;;;2.90;2.70;;;8.80;99.90;;;;;;5052016;28;20443;-70
2021/12/01 07:16:04;;;;;;;3.50;3.20;;;8.70;99.90;;;;;;5050891;28;20292;-70
2021/12/01 07:18:30;;;;;;;4.90;3.20;;;8.70;99.90;;;;;;5051322;28;20274;-72
2021/12/01 07:20:56;;;;;;;3.47;3.27;;;8.80;99.90;;;;;;5051198;28;20284;-72
2021/12/01 07:23:22;;;;;;;3.60;3.33;;;8.70;99.90;;;;;;5050574;28;20189;-72
2021/12/01 07:25:49;;;;;;;2.40;2.20;;;8.70;99.90;;;;;;5050398;28;20199;-72
2021/12/01 07:28:14;;;;;;;2.93;2.73;;;8.70;99.90;;;;;;5038112;28;20930;-73
2021/12/01 07:30:40;;;;;;;5.90;2.47;;;8.90;99.90;;;;;;5046150;28;20457;-73
2021/12/01 07:33:06;;;;;;;2.50;2.30;;;8.80;99.90;;;;;;5047845;28;20224;-73
2021/12/01 07:35:32;;;;;;;2.27;2.07;;;8.80;99.90;;;;;;5050582;28;20205;-71
2021/12/01 07:37:58;;;;;;;2.57;2.37;;;8.70;99.90;;;;;;5050091;28;20478;-71
2021/12/01 07:40:24;;;;;;;3.30;2.50;;;8.70;99.90;;;;;;5048575;28;20278;-71
2021/12/01 07:42:51;;;;;;;2.33;2.13;;;8.70;99.90;;;;;;5049494;28;20244;-72
2021/12/01 07:45:17;;;;;;;2.20;2.00;;;8.70;99.90;;;;;;5045176;28;20178;-73
2021/12/01 07:47:42;;;;;;;2.50;2.03;;;8.70;99.90;;;;;;5032473;28;20428;-73
2021/12/01 07:50:08;;;;;;;2.30;2.10;;;8.70;99.90;;;;;;5048949;28;20545;-71
2021/12/01 07:52:35;;;;;;;2.17;1.97;;;8.70;99.90;;;;;;5059005;28;20262;-72
2021/12/01 07:55:02;;;;;;;2.07;1.80;;;8.60;99.90;;;;;;5069091;28;20414;-73
2021/12/01 07:57:27;;;;;;;2.03;1.83;;;8.60;99.90;;;;;;5041839;28;20463;-73
2021/12/01 07:59:53;;;;;;;1.63;1.53;;;8.70;99.90;;;;;;5032154;28;20510;-72
2021/12/01 08:02:19;;;;;;;1.80;1.70;;;8.70;99.90;;;;;;5048869;28;20210;-72
2021/12/01 08:04:44;;;;;;;1.60;1.50;;;8.70;99.90;;;;;;5053056;28;20181;-72
2021/12/01 08:07:10;;;;;;;2.03;1.87;;;8.70;99.90;;;;;;5047419;28;20182;-72
2021/12/01 08:09:36;;;;;;;1.50;1.40;;;8.70;99.90;;;;;;5062016;28;20753;-73
2021/12/01 08:12:02;;;;;;;1.53;1.43;;;8.60;99.90;;;;;;5084422;28;20207;-72
2021/12/01 08:14:27;;;;;;;1.53;1.43;;;8.60;99.90;;;;;;5083217;28;20434;-72
2021/12/01 08:16:54;;;;;;;2.20;1.20;;;8.60;99.90;;;;;;5060627;28;20181;-72
2021/12/01 08:19:21;;;;;;;1.73;1.10;;;8.50;99.90;;;;;;5031075;28;20186;-73
2021/12/01 08:21:49;;;;;;;1.60;1.50;;;8.60;99.90;;;;;;5029219;28;20511;-72
2021/12/01 08:24:15;;;;;;;1.70;1.60;;;8.60;99.90;;;;;;5028007;28;20449;-72
2021/12/01 08:26:42;;;;;;;1.47;1.37;;;8.60;99.90;;;;;;5048477;28;20442;-72
2021/12/01 08:29:08;;;;;;;1.63;1.53;;;8.60;99.90;;;;;;5018865;28;20442;-73
2021/12/01 08:31:34;;;;;;;1.87;1.30;;;8.60;99.90;;;;;;5028975;28;20425;-72
2021/12/01 08:34:00;;;;;;;1.37;1.27;;;8.50;99.90;;;;;;5029473;28;20491;-72
2021/12/01 08:36:26;;;;;;;1.90;1.07;;;8.50;99.90;;;;;;5028592;28;20190;-72
2021/12/01 08:38:51;;;;;;;1.23;1.13;;;8.60;99.90;;;;;;5030741;28;20517;-73
2021/12/01 08:41:17;;;;;;;1.43;1.33;;;8.60;99.90;;;;;;5039708;28;20205;-73
2021/12/01 08:43:43;;;;;;;1.43;1.33;;;8.60;99.90;;;;;;5058211;28;20173;-73
2021/12/01 08:46:09;;;;;;;1.67;1.57;;;8.60;99.90;;;;;;5068333;28;20173;-73
2021/12/01 08:48:38;;;;;;;1.43;1.27;;;8.60;99.90;;;;;;5069861;28;20188;-73
2021/12/01 08:51:05;;;;;;;1.10;1.10;;;8.60;99.90;;;;;;5059754;28;20477;-72
2021/12/01 08:53:33;;;;;;;1.70;1.60;;;8.60;99.90;;;;;;5029364;28;20452;-72
2021/12/01 08:56:00;;;;;;;1.07;0.90;;;8.60;99.90;;;;;;5029199;28;20421;-73
2021/12/01 08:58:27;;;;;;;1.70;1.20;;;8.60;99.90;;;;;;5031723;28;20451;-72
2021/12/01 09:00:54;;;;;;;1.20;1.10;;;8.60;99.90;;;;;;5049836;28;20827;-72
2021/12/01 09:03:20;;;;;;;2.20;1.47;;;8.70;99.90;;;;;;5036129;28;20941;-71
2021/12/01 09:05:47;;;;;;;1.70;1.47;;;8.70;99.90;;;;;;5053164;28;20428;-72
2021/12/01 09:08:15;;;;;;;1.27;1.10;;;8.70;99.90;;;;;;5055720;28;20916;-72
2021/12/01 09:10:41;;;;;;;1.93;1.33;;;8.80;99.90;;;;;;5053910;28;21180;-72
2021/12/01 09:13:07;;;;;;;2.90;2.60;;;8.80;99.90;;;;;;5050408;28;20433;-71
2021/12/01 09:15:33;;;;;;;1.50;1.30;;;8.70;99.90;;;;;;5046617;28;20420;-72
2021/12/01 09:18:00;;;;;;;2.10;1.20;;;8.80;99.90;;;;;;5044951;28;20420;-72
2021/12/01 09:20:26;;;;;;;1.60;1.50;;;8.80;99.90;;;;;;5026807;28;21240;-73
2021/12/01 09:22:52;;;;;;;1.60;1.50;;;8.80;99.90;;;;;;5039041;28;20468;-73
2021/12/01 09:25:18;;;;;;;1.67;1.20;;;8.90;99.90;;;;;;5035487;28;20413;-72
2021/12/01 09:27:45;;;;;;;1.07;0.90;;;8.80;99.90;;;;;;5034452;28;20438;-72
2021/12/01 09:30:13;;;;;;;2.80;1.53;;;8.90;99.90;;;;;;5035407;28;20187;-72
2021/12/01 09:32:38;;;;;;;2.13;1.20;;;8.90;99.90;;;;;;5038222;28;20433;-73
2021/12/01 09:35:06;;;;;;;1.20;1.10;;;8.90;99.90;;;;;;5036606;28;20533;-72
2021/12/01 09:37:32;;;;;;;2.10;1.23;;;9.00;99.90;;;;;;5040472;28;20201;-72
2021/12/01 09:39:58;;;;;;;1.80;1.70;;;8.90;99.90;;;;;;5049592;28;20485;-71
2021/12/01 09:42:24;;;;;;;1.10;1.00;;;8.90;99.90;;;;;;5049592;28;20514;-71
2021/12/01 09:44:51;;;;;;;1.43;0.87;;;8.90;99.90;;;;;;5031081;28;20413;-72
2021/12/01 09:47:19;;;;;;;1.13;1.03;;;9.00;99.90;;;;;;5041866;28;20405;-72
2021/12/01 09:49:46;;;;;;;1.97;1.20;;;9.00;99.90;;;;;;5035635;28;21114;-73
2021/12/01 09:52:12;;;;;;;1.30;1.20;;;9.00;99.90;;;;;;5016039;28;20526;-73
2021/12/01 09:54:39;;;;;;;1.07;0.97;;;9.00;99.90;;;;;;5038771;28;20439;-73
2021/12/01 09:57:05;;;;;;;1.20;1.10;;;9.00;99.90;;;;;;5050730;28;20420;-73
2021/12/01 09:59:32;;;;;;;1.87;1.40;;;9.00;99.90;;;;;;5051884;28;20421;-73
2021/12/01 10:01:58;;;;;;;1.17;1.07;;;9.00;99.90;;;;;;5052129;28;20502;-73
2021/12/01 10:04:25;;;;;;;1.63;1.27;;;9.00;99.90;;;;;;5053556;28;20463;-72
2021/12/01 10:06:54;;;;;;;1.13;1.03;;;9.00;99.90;;;;;;5033075;28;20247;-73
2021/12/01 10:09:20;;;;;;;1.17;1.07;;;9.00;99.90;;;;;;5031042;28;20505;-72
2021/12/01 10:11:47;;;;;;;1.50;1.40;;;9.00;99.90;;;;;;5031032;28;20594;-73
2021/12/01 10:14:17;;;;;;;1.30;1.10;;;9.10;99.90;;;;;;5030483;28;20523;-72
2021/12/01 10:16:45;;;;;;;1.63;1.53;;;9.10;99.90;;;;;;5042928;28;20421;-72
2021/12/01 10:19:13;;;;;;;4.00;1.67;;;9.10;99.90;;;;;;5045230;28;20423;-72
2021/12/01 10:21:47;;;;;;;1.63;1.20;;;9.10;99.90;;;;;;5046001;28;20528;-73
2021/12/01 10:24:23;;;;;;;2.00;1.23;;;9.10;99.90;;;;;;5048050;28;20943;-73
2021/12/01 10:26:52;;;;;;;1.20;1.10;;;9.10;99.90;;;;;;5048107;28;20431;-73
2021/12/01 10:29:21;;;;;;;1.97;1.10;;;9.10;99.90;;;;;;5048662;28;20416;-73
2021/12/01 10:32:13;;;;;;;1.20;1.10;;;9.10;99.90;;;;;;5047368;28;20448;-73
2021/12/01 10:34:53;;;;;;;0.83;0.83;;;9.10;99.90;;;;;;5043550;28;20415;-72
2021/12/01 10:37:29;;;;;;;1.10;1.00;;;9.00;99.90;;;;;;5043567;28;20760;-72
2021/12/01 10:40:23;;;;;;;1.27;1.07;;;9.10;99.90;;;;;;5030753;28;20401;-73
2021/12/01 10:42:54;;;;;;;1.23;1.13;;;9.00;99.90;;;;;;5043375;28;20467;-72
2021/12/01 10:45:23;;;;;;;1.10;1.00;;;9.00;99.90;;;;;;5082270;28;20505;-71
2021/12/01 10:47:48;;;;;;;1.87;1.20;;;9.00;99.90;;;;;;5083088;28;20438;-71
2021/12/01 10:50:19;;;;;;;1.20;1.10;;;9.00;99.90;;;;;;5079875;28;20416;-72
2021/12/01 10:52:49;;;;;;;1.20;1.10;;;9.00;99.90;;;;;;5038351;28;20252;-73
2021/12/01 10:55:21;;;;;;;1.50;1.40;;;9.00;99.90;;;;;;5007345;28;20935;-72
2021/12/01 10:57:49;;;;;;;1.40;1.30;;;9.00;99.90;;;;;;5032963;28;20436;-72
2021/12/01 11:00:18;;;;;;;1.37;1.27;;;9.10;99.90;;;;;;5049496;28;20426;-72
2021/12/01 11:02:45;;;;;;;1.67;1.30;;;9.10;99.90;;;;;;5047514;28;20459;-72
2021/12/01 11:05:23;;;;;;;1.60;1.50;;;9.10;99.90;;;;;;5051147;28;20442;-72
2021/12/01 11:07:49;;;;;;;1.80;1.70;;;9.10;99.90;;;;;;5050063;28;20511;-72
2021/12/01 11:10:20;;;;;;;1.77;1.67;;;9.10;99.90;;;;;;5050178;28;20892;-72
2021/12/01 11:12:58;;;;;;;1.60;1.50;;;9.10;99.90;;;;;;5049190;28;20293;-72
2021/12/01 11:15:26;;;;;;;1.63;1.30;;;9.20;99.90;;;;;;5050205;28;20939;-72
2021/12/01 11:17:54;;;;;;;1.37;1.27;;;9.20;99.90;;;;;;5049912;28;20883;-73
2021/12/01 11:20:47;;;;;;;1.40;1.30;;;9.20;99.90;;;;;;5051196;28;20419;-72
2021/12/01 11:23:24;;;;;;;1.53;1.50;;;9.20;99.90;;;;;;5025742;28;21100;-72
2021/12/01 11:25:55;;;;;;;1.33;1.23;;;9.20;99.90;;;;;;5029362;28;20812;-72
2021/12/01 11:28:23;;;;;;;1.40;1.33;;;9.20;99.90;;;;;;5029858;28;20452;-72
2021/12/01 11:30:59;;;;;;;1.70;1.40;;;9.20;99.90;;;;;;5011624;28;20863;-71
2021/12/01 11:33:27;;;;;;;2.23;1.50;;;9.30;99.90;;;;;;5030837;28;20417;-72
2021/12/01 11:35:56;;;;;;;1.30;1.20;;;9.20;99.90;;;;;;5029536;28;20448;-72
2021/12/01 11:38:22;;;;;;;2.70;1.00;;;9.30;99.90;;;;;;5039227;28;20502;-72
2021/12/01 11:40:49;;;;;;;1.60;1.27;;;9.20;99.90;;;;;;5049651;28;20423;-72
2021/12/01 11:43:17;;;;;;;1.20;1.10;;;9.30;99.90;;;;;;5040508;28;20491;-70
2021/12/01 11:45:45;;;;;;;1.53;1.43;;;9.30;99.90;;;;;;5036201;28;20586;-72
2021/12/01 11:48:16;;;;;;;2.90;1.67;;;9.30;99.90;;;;;;5028566;28;20434;-71
2021/12/01 11:50:54;;;;;;;1.63;1.40;;;9.30;99.90;;;;;;5029616;28;20615;-73
2021/12/01 11:53:23;;;;;;;1.30;1.30;;;9.30;99.90;;;;;;5039888;28;20428;-70
2021/12/01 11:56:04;;;;;;;1.30;1.20;;;9.30;99.90;;;;;;5061425;28;20460;-71
2021/12/01 11:58:51;;;;;;;3.03;2.17;;;9.30;99.90;;;;;;5063456;28;20519;-72
2021/12/01 12:01:22;;;;;;;1.60;1.50;;;9.40;99.90;;;;;;5047942;28;20478;-72
2021/12/01 12:03:54;;;;;;;2.90;1.40;;;9.40;99.90;;;;;;5049169;28;20434;-71
2021/12/01 12:06:25;;;;;;;2.80;1.70;;;9.30;99.90;;;;;;5046562;28;20472;-72
2021/12/01 12:08:53;;;;;;;2.53;2.10;;;9.30;99.90;;;;;;5048701;28;20790;-72
2021/12/01 12:11:38;;;;;;;2.57;2.37;;;9.30;99.90;;;;;;5048527;28;20479;-72
2021/12/01 12:14:09;;;;;;;2.00;1.80;;;9.20;99.90;;;;;;5048222;28;20435;-72
2021/12/01 12:16:36;;;;;;;3.53;1.90;;;9.30;99.90;;;;;;5041554;28;20475;-72
2021/12/01 12:19:03;;;;;;;2.27;2.17;;;9.20;99.90;;;;;;5022482;28;20498;-72
2021/12/01 12:24:24;;;;;;;4.73;3.00;;;9.20;99.90;;;;;;5047849;28;20457;-71
2021/12/01 12:26:57;;;;;;;3.30;3.00;;;9.20;99.90;;;;;;5043212;28;20439;-72
2021/12/01 12:29:25;;;;;;;3.83;2.70;;;9.10;99.90;;;;;;5034653;28;20752;-71
2021/12/01 12:31:53;;;;;;;3.20;2.77;;;9.00;99.90;;;;;;5044358;28;20827;-71
2021/12/01 12:34:21;;;;;;;3.20;2.50;;;8.80;99.90;;;;;;5051627;28;20446;-71
2021/12/01 12:36:55;;;;;;;2.73;2.53;;;8.80;99.90;;;;;;5052366;28;20947;-71
2021/12/01 12:39:31;;;;;;;6.37;2.20;;;8.80;99.90;;;;;;5053201;28;20416;-71
2021/12/01 12:41:57;;;;;;;2.67;2.00;;;8.70;99.90;;;;;;5051307;28;20461;-71
2021/12/01 12:44:47;;;;;;;5.80;2.50;;;8.80;99.90;;;;;;5055515;28;20792;-71
2021/12/01 12:47:14;;;;;;;4.53;2.37;;;8.80;99.90;;;;;;5051687;28;20450;-71
2021/12/01 12:49:49;;;;;;;3.90;2.33;;;8.90;99.90;;;;;;5054195;28;20440;-73
2021/12/01 12:52:24;;;;;;;5.30;2.00;;;8.80;99.90;;;;;;5038585;28;20551;-70
2021/12/01 12:54:54;;;;;;;4.20;2.20;;;8.80;99.90;;;;;;5031793;28;20510;-70
2021/12/01 12:57:21;;;;;;;2.80;2.40;;;8.90;99.90;;;;;;5032126;28;20463;-70
2021/12/01 12:59:47;;;;;;;4.60;2.40;;;8.90;99.90;;;;;;5026450;28;20435;-70
2021/12/01 13:02:16;;;;;;;3.13;2.60;;;9.00;99.90;;;;;;5050067;28;20492;-70
2021/12/01 13:04:48;;;;;;;2.83;1.80;;;9.00;99.90;;;;;;5033500;28;20181;-71
2021/12/01 13:07:38;;;;;;;2.40;1.60;;;9.00;99.90;;;;;;5051947;28;20393;-70
2021/12/01 13:10:20;;;;;;;2.63;2.00;;;9.00;99.90;;;;;;5050922;28;20394;-71